createdAt,value
2023-05-14T00:02:24.237Z,5.85
2023-05-14T00:04:52.064Z,6.32
2023-05-14T00:07:19.728Z,8.93
2023-05-14T00:09:47.426Z,6.45
2023-05-14T00:12:15.196Z,6.07
2023-05-14T00:14:42.876Z,7.68
2023-05-14T00:17:10.768Z,6.63
2023-05-14T00:19:41.767Z,6.63
2023-05-14T00:22:09.524Z,6.75
2023-05-14T00:24:37.516Z,7.03
2023-05-14T00:27:05.479Z,8.40
2023-05-14T00:29:33.270Z,8.85
2023-05-14T00:32:01.015Z,5.72
2023-05-14T00:34:28.687Z,5.43
2023-05-14T00:36:57.751Z,5.30
2023-05-14T00:39:25.492Z,6.35
2023-05-14T00:41:53.302Z,5.32
2023-05-14T00:44:21.079Z,6.25
2023-05-14T00:46:48.806Z,6.28
2023-05-14T00:49:16.754Z,6.10
2023-05-14T00:51:46.830Z,4.80
2023-05-14T00:54:17.130Z,4.28
2023-05-14T00:56:46.043Z,4.93
2023-05-14T00:59:14.050Z,4.43
2023-05-14T01:01:41.697Z,4.32
2023-05-14T01:04:10.132Z,4.65
2023-05-14T01:06:41.761Z,4.20
2023-05-14T01:09:11.370Z,3.50
2023-05-14T01:11:43.668Z,4.35
2023-05-14T01:14:15.678Z,4.45
2023-05-14T01:16:44.186Z,4.10
2023-05-14T01:19:18.125Z,4.30
2023-05-14T01:21:47.274Z,3.92
2023-05-14T01:24:14.903Z,3.55
2023-05-14T01:26:42.920Z,4.05
2023-05-14T01:29:14.783Z,5.20
2023-05-14T01:31:44.206Z,4.20
2023-05-14T01:34:12.798Z,6.28
2023-05-14T01:36:41.555Z,4.38
2023-05-14T01:39:11.403Z,4.00
2023-05-14T01:41:39.324Z,5.03
2023-05-14T01:44:07.109Z,4.20
2023-05-14T01:46:35.020Z,5.63
2023-05-14T01:49:03.160Z,6.63
2023-05-14T01:51:30.939Z,4.68
2023-05-14T01:53:58.688Z,4.57
2023-05-14T01:56:27.747Z,6.45
2023-05-14T01:58:55.602Z,6.40
2023-05-14T02:01:23.559Z,7.15
2023-05-14T02:03:51.341Z,6.05
2023-05-14T02:06:19.058Z,5.97
2023-05-14T02:08:46.710Z,6.15
2023-05-14T02:11:14.394Z,8.82
2023-05-14T02:13:43.488Z,8.43
2023-05-14T02:16:11.328Z,10.38
2023-05-14T02:18:39.219Z,9.77
2023-05-14T02:21:07.046Z,7.95
2023-05-14T02:23:41.474Z,7.15
2023-05-14T02:26:10.601Z,8.00
2023-05-14T02:28:38.356Z,9.60
2023-05-14T02:31:07.402Z,7.40
2023-05-14T02:33:35.326Z,9.82
2023-05-14T02:36:03.004Z,8.48
2023-05-14T02:38:30.843Z,8.45
2023-05-14T02:40:58.495Z,7.03
2023-05-14T02:43:26.156Z,11.13
2023-05-14T02:45:53.874Z,8.10
2023-05-14T02:48:22.922Z,9.85
2023-05-14T02:50:51.050Z,9.82
2023-05-14T02:53:18.845Z,8.60
2023-05-14T02:55:46.528Z,9.45
2023-05-14T02:58:15.006Z,9.68
2023-05-14T03:00:42.768Z,7.40
2023-05-14T03:03:11.005Z,9.75
2023-05-14T03:05:40.602Z,8.02
2023-05-14T03:08:08.342Z,8.07
2023-05-14T03:10:36.025Z,8.95
2023-05-14T03:13:03.704Z,9.05
2023-05-14T03:15:31.464Z,8.02
2023-05-14T03:17:59.244Z,9.00
2023-05-14T03:20:27.740Z,7.75
2023-05-14T03:22:56.872Z,8.32
2023-05-14T03:25:25.588Z,7.60
2023-05-14T03:27:53.334Z,6.15
2023-05-14T03:30:21.146Z,7.22
2023-05-14T03:32:49.494Z,8.57
2023-05-14T03:35:17.372Z,8.75
2023-05-14T03:37:45.046Z,7.25
2023-05-14T03:40:14.372Z,7.00
2023-05-14T03:42:44.267Z,10.50
2023-05-14T03:45:12.010Z,7.70
2023-05-14T03:47:39.839Z,7.38
2023-05-14T03:50:08.484Z,7.10
2023-05-14T03:52:36.189Z,8.23
2023-05-14T03:55:04.093Z,8.52
2023-05-14T03:57:33.182Z,9.52
2023-05-14T04:00:00.885Z,7.28
2023-05-14T04:02:28.719Z,7.95
2023-05-14T04:04:56.664Z,8.25
2023-05-14T04:07:24.412Z,9.57
2023-05-14T04:09:52.122Z,8.68
2023-05-14T04:12:19.889Z,8.75
2023-05-14T04:14:49.490Z,8.00
2023-05-14T04:17:17.982Z,8.05
2023-05-14T04:19:45.685Z,9.50
2023-05-14T04:22:13.829Z,11.45
2023-05-14T04:24:41.889Z,10.90
2023-05-14T04:27:09.966Z,7.70
2023-05-14T04:29:37.965Z,7.93
2023-05-14T04:32:08.015Z,8.75
2023-05-14T04:34:36.324Z,9.05
2023-05-14T04:37:05.069Z,6.88
2023-05-14T04:39:33.183Z,8.43
2023-05-14T04:42:01.583Z,10.13
2023-05-14T04:44:29.876Z,10.27
2023-05-14T04:46:57.887Z,10.23
2023-05-14T04:49:27.454Z,8.02
2023-05-14T04:51:55.641Z,7.60
2023-05-14T04:54:23.738Z,7.95
2023-05-14T04:57:13.319Z,8.43
2023-05-14T04:59:41.296Z,9.93
2023-05-14T05:02:09.249Z,10.77
2023-05-14T05:04:38.643Z,7.38
2023-05-14T05:07:06.859Z,8.27
2023-05-14T05:09:34.779Z,7.70
2023-05-14T05:12:02.711Z,10.00
2023-05-14T05:14:30.854Z,7.70
2023-05-14T05:16:58.917Z,6.95
2023-05-14T05:19:39.726Z,7.75
2023-05-14T05:22:13.043Z,8.07
2023-05-14T05:24:41.147Z,7.88
2023-05-14T05:27:09.073Z,8.50
2023-05-14T05:29:36.871Z,5.55
2023-05-14T05:32:05.459Z,6.32
2023-05-14T05:34:33.425Z,6.00
2023-05-14T05:37:01.376Z,6.82
2023-05-14T05:39:34.755Z,7.25
2023-05-14T05:42:03.192Z,6.65
2023-05-14T05:44:31.187Z,6.15
2023-05-14T05:46:59.286Z,7.13
2023-05-14T05:49:27.120Z,5.82
2023-05-14T05:51:55.263Z,6.20
2023-05-14T05:54:24.242Z,7.38
2023-05-14T05:56:53.561Z,8.50
2023-05-14T05:59:21.646Z,8.30
2023-05-14T06:01:49.685Z,6.07
2023-05-14T06:04:17.637Z,8.63
2023-05-14T06:06:45.554Z,6.53
2023-05-14T06:09:16.205Z,5.45
2023-05-14T06:11:44.236Z,5.90
2023-05-14T06:14:14.510Z,5.18
2023-05-14T06:16:42.956Z,5.47
2023-05-14T06:19:11.191Z,6.10
2023-05-14T06:21:40.624Z,7.28
2023-05-14T06:24:09.064Z,6.38
2023-05-14T06:26:37.174Z,5.78
2023-05-14T06:29:06.271Z,5.78
2023-05-14T06:31:36.258Z,4.93
2023-05-14T06:34:08.256Z,4.60
2023-05-14T06:36:36.970Z,6.68
2023-05-14T06:39:05.216Z,7.15
2023-05-14T06:41:33.682Z,5.13
2023-05-14T06:44:02.537Z,6.82
2023-05-14T06:46:31.921Z,5.18
2023-05-14T06:49:01.658Z,5.22
2023-05-14T06:51:29.660Z,5.63
2023-05-14T06:53:57.379Z,4.85
2023-05-14T06:56:25.080Z,4.78
2023-05-14T06:58:52.745Z,4.10
2023-05-14T07:01:20.513Z,6.57
2023-05-14T07:03:48.321Z,5.50
2023-05-14T07:06:17.413Z,6.38
2023-05-14T07:08:46.192Z,4.20
2023-05-14T07:11:14.333Z,3.85
2023-05-14T07:13:42.175Z,3.65
2023-05-14T07:16:10.711Z,4.60
2023-05-14T07:18:38.610Z,4.53
2023-05-14T07:21:07.164Z,4.40
2023-05-14T07:23:38.232Z,5.90
2023-05-14T07:26:06.818Z,4.07
2023-05-14T07:28:34.717Z,4.22
2023-05-14T07:31:02.457Z,6.43
2023-05-14T07:33:30.209Z,3.40
2023-05-14T07:35:57.850Z,4.32
2023-05-14T07:38:25.543Z,5.15
2023-05-14T07:40:54.767Z,3.60
2023-05-14T07:43:22.456Z,3.72
2023-05-14T07:45:50.160Z,3.90
2023-05-14T07:48:17.825Z,4.72
2023-05-14T07:50:45.503Z,3.70
2023-05-14T07:53:13.134Z,3.90
2023-05-14T07:55:41.665Z,5.20
2023-05-14T07:58:10.801Z,3.72
2023-05-14T08:00:38.561Z,4.25
2023-05-14T08:03:06.620Z,4.05
2023-05-14T08:05:34.544Z,3.75
2023-05-14T08:08:02.636Z,3.83
2023-05-14T08:10:30.547Z,3.85
2023-05-14T08:12:58.521Z,4.22
2023-05-14T08:15:28.011Z,4.05
2023-05-14T08:17:56.019Z,3.80
2023-05-14T08:20:24.345Z,4.30
2023-05-14T08:22:52.201Z,3.78
2023-05-14T08:25:19.918Z,4.80
2023-05-14T08:27:47.611Z,3.70
2023-05-14T08:30:15.601Z,3.75
2023-05-14T08:32:44.733Z,4.35
2023-05-14T08:35:12.784Z,4.20
2023-05-14T08:37:40.493Z,4.53
2023-05-14T08:40:09.203Z,3.42
2023-05-14T08:42:40.427Z,4.93
2023-05-14T08:45:11.092Z,4.45
2023-05-14T08:47:38.864Z,3.55
2023-05-14T08:50:08.659Z,5.47
2023-05-14T08:52:37.393Z,3.03
2023-05-14T08:55:07.017Z,3.47
2023-05-14T08:57:37.884Z,3.47
2023-05-14T09:00:08.409Z,3.25
2023-05-14T09:02:36.403Z,3.92
2023-05-14T09:05:04.666Z,4.65
2023-05-14T09:07:34.158Z,2.95
2023-05-14T09:10:02.025Z,2.85
2023-05-14T09:12:29.865Z,2.92
2023-05-14T09:14:57.554Z,3.10
2023-05-14T09:17:26.859Z,3.10
2023-05-14T09:19:54.792Z,5.90
2023-05-14T09:22:22.781Z,2.80
2023-05-14T09:25:04.568Z,3.25
2023-05-14T09:27:33.149Z,2.58
2023-05-14T09:30:08.760Z,4.25
2023-05-14T09:32:37.155Z,2.40
2023-05-14T09:35:17.014Z,2.65
2023-05-14T09:37:45.191Z,2.55
2023-05-14T09:40:14.861Z,3.33
2023-05-14T09:42:42.648Z,2.65
2023-05-14T09:45:10.760Z,2.85
2023-05-14T09:47:39.461Z,2.40
2023-05-14T09:50:08.072Z,3.72
2023-05-14T09:52:36.111Z,3.13
2023-05-14T09:55:04.089Z,2.95
2023-05-14T09:57:33.621Z,2.40
2023-05-14T10:00:01.440Z,2.47
2023-05-14T10:02:36.720Z,3.00
2023-05-14T10:05:05.837Z,2.35
2023-05-14T10:07:36.358Z,3.97
2023-05-14T10:10:04.784Z,2.47
2023-05-14T10:12:35.693Z,2.25
2023-05-14T10:15:05.704Z,2.58
2023-05-14T10:17:35.330Z,2.45
2023-05-14T10:20:05.213Z,1.92
2023-05-14T10:22:34.537Z,2.83
2023-05-14T10:25:02.857Z,2.42
2023-05-14T10:27:30.977Z,2.63
2023-05-14T10:30:00.415Z,1.92
2023-05-14T10:32:32.876Z,2.03
2023-05-14T10:35:02.628Z,2.45
2023-05-14T10:37:31.123Z,3.55
2023-05-14T10:39:59.732Z,1.98
2023-05-14T10:42:28.676Z,2.17
2023-05-14T10:44:58.485Z,2.03
2023-05-14T10:47:28.286Z,2.28
2023-05-14T10:49:56.811Z,4.07
2023-05-14T10:52:25.158Z,3.28
2023-05-14T10:54:53.584Z,3.03
2023-05-14T10:57:21.787Z,3.83
2023-05-14T10:59:49.885Z,1.90
2023-05-14T11:02:21.415Z,4.00
2023-05-14T11:05:03.549Z,3.65
2023-05-14T11:07:32.501Z,2.53
2023-05-14T11:10:04.693Z,2.45
2023-05-14T11:12:33.279Z,1.77
2023-05-14T11:15:02.351Z,2.33
2023-05-14T11:17:30.778Z,3.38
2023-05-14T11:20:01.786Z,3.45
2023-05-14T11:22:30.088Z,2.53
2023-05-14T11:24:58.571Z,1.58
2023-05-14T11:27:26.610Z,1.58
2023-05-14T11:29:55.807Z,1.65
2023-05-14T11:32:23.608Z,1.60
2023-05-14T11:34:51.717Z,2.42
2023-05-14T11:37:21.076Z,3.95
2023-05-14T11:39:49.943Z,3.25
2023-05-14T11:42:19.434Z,1.83
2023-05-14T11:44:47.753Z,2.50
2023-05-14T11:47:15.780Z,2.08
2023-05-14T11:49:43.566Z,3.67
2023-05-14T11:52:14.027Z,2.22
2023-05-14T11:54:44.279Z,1.92
2023-05-14T11:57:12.560Z,1.80
2023-05-14T11:59:40.953Z,2.10
2023-05-14T12:02:11.189Z,2.00
2023-05-14T12:04:39.029Z,1.73
2023-05-14T12:07:10.209Z,3.42
2023-05-14T12:09:38.786Z,3.55
2023-05-14T12:12:11.356Z,1.95
2023-05-14T12:14:39.589Z,2.55
2023-05-14T12:17:12.700Z,2.75
2023-05-14T12:19:41.089Z,2.83
2023-05-14T12:22:09.181Z,2.90
2023-05-14T12:24:36.985Z,2.10
2023-05-14T12:27:04.990Z,2.35
2023-05-14T12:29:36.327Z,1.98
2023-05-14T12:32:08.655Z,1.83
2023-05-14T12:34:37.547Z,1.90
2023-05-14T12:37:05.908Z,1.75
2023-05-14T12:39:34.858Z,2.70
2023-05-14T12:42:02.902Z,1.40
2023-05-14T12:44:30.609Z,2.17
2023-05-14T12:46:59.735Z,1.75
2023-05-14T12:49:27.417Z,1.92
2023-05-14T12:52:07.659Z,1.85
2023-05-14T12:54:43.433Z,2.03
2023-05-14T12:57:11.334Z,1.65
2023-05-14T12:59:39.024Z,3.08
2023-05-14T13:02:08.261Z,1.48
2023-05-14T13:04:37.424Z,1.33
2023-05-14T13:07:05.288Z,2.60
2023-05-14T13:09:33.007Z,2.85
2023-05-14T13:12:00.659Z,1.52
2023-05-14T13:14:28.384Z,1.73
2023-05-14T13:16:56.107Z,1.65
2023-05-14T13:19:25.208Z,1.98
2023-05-14T13:21:52.851Z,1.55
2023-05-14T13:24:20.667Z,1.98
2023-05-14T13:26:48.346Z,2.40
2023-05-14T13:29:16.046Z,3.13
2023-05-14T13:31:43.733Z,2.60
2023-05-14T13:34:11.365Z,1.58
2023-05-14T13:36:40.783Z,1.75
2023-05-14T13:39:08.583Z,2.03
2023-05-14T13:41:37.886Z,2.22
2023-05-14T13:44:05.804Z,1.63
2023-05-14T13:46:33.601Z,1.42
2023-05-14T13:49:01.344Z,2.90
2023-05-14T13:51:29.071Z,1.75
2023-05-14T13:53:58.125Z,2.72
2023-05-14T13:56:25.882Z,1.55
2023-05-14T13:58:53.641Z,1.52
2023-05-14T14:01:21.840Z,1.50
2023-05-14T14:03:49.931Z,2.58
2023-05-14T14:06:17.612Z,1.17
2023-05-14T14:08:45.363Z,1.33
2023-05-14T14:11:14.545Z,1.45
2023-05-14T14:13:43.722Z,3.38
2023-05-14T14:16:12.803Z,1.52
2023-05-14T14:18:40.607Z,2.25
2023-05-14T14:21:08.357Z,2.03
2023-05-14T14:23:36.313Z,1.50
2023-05-14T14:26:04.309Z,1.30
2023-05-14T14:28:33.556Z,1.48
2023-05-14T14:31:01.489Z,1.45
2023-05-14T14:33:29.361Z,1.50
2023-05-14T14:35:57.250Z,1.40
2023-05-14T14:38:25.534Z,1.25
2023-05-14T14:40:53.493Z,2.80
2023-05-14T14:43:21.473Z,1.33
2023-05-14T14:45:51.030Z,1.98
2023-05-14T14:48:26.203Z,1.08
2023-05-14T14:50:54.423Z,2.63
2023-05-14T14:53:22.902Z,2.28
2023-05-14T14:55:51.049Z,1.10
2023-05-14T14:58:19.560Z,0.82
2023-05-14T15:00:47.512Z,2.72
2023-05-14T15:03:17.027Z,1.15
2023-05-14T15:05:45.077Z,1.17
2023-05-14T15:08:13.297Z,0.90
2023-05-14T15:10:42.486Z,1.10
2023-05-14T15:13:11.372Z,1.17
2023-05-14T15:15:39.544Z,2.90
2023-05-14T15:18:07.412Z,0.98
2023-05-14T15:20:36.592Z,2.78
2023-05-14T15:23:04.389Z,1.70
2023-05-14T15:25:32.304Z,1.38
2023-05-14T15:28:00.229Z,1.70
2023-05-14T15:30:28.005Z,2.15
2023-05-14T15:32:56.509Z,0.85
2023-05-14T15:35:24.768Z,1.30
2023-05-14T15:37:56.559Z,1.50
2023-05-14T15:40:24.646Z,1.17
2023-05-14T15:42:52.655Z,1.88
2023-05-14T15:45:20.610Z,1.50
2023-05-14T15:47:48.343Z,1.70
2023-05-14T15:50:16.080Z,1.25
2023-05-14T15:52:43.755Z,1.00
2023-05-14T15:55:12.895Z,1.33
2023-05-14T15:57:40.639Z,1.00
2023-05-14T16:00:10.739Z,1.05
2023-05-14T16:02:38.581Z,0.73
2023-05-14T16:05:06.698Z,0.90
2023-05-14T16:07:34.360Z,1.65
2023-05-14T16:10:02.043Z,0.93
2023-05-14T16:12:31.123Z,2.35
2023-05-14T16:14:59.834Z,1.10
2023-05-14T16:17:27.520Z,1.33
2023-05-14T16:19:56.429Z,0.82
2023-05-14T16:22:24.361Z,0.80
2023-05-14T16:24:52.071Z,2.78
2023-05-14T16:27:19.777Z,1.17
2023-05-14T16:29:48.814Z,1.67
2023-05-14T16:32:16.596Z,0.60
2023-05-14T16:34:49.556Z,0.73
2023-05-14T16:37:17.335Z,0.95
2023-05-14T16:39:45.014Z,0.90
2023-05-14T16:42:12.662Z,0.80
2023-05-14T16:44:40.440Z,2.60
2023-05-14T16:47:09.462Z,1.08
2023-05-14T16:49:37.635Z,1.65
2023-05-14T16:52:05.645Z,2.33
2023-05-14T16:54:33.328Z,2.42
2023-05-14T16:57:04.494Z,2.13
2023-05-14T16:59:32.142Z,2.05
2023-05-14T17:01:59.878Z,1.88
2023-05-14T17:04:29.625Z,2.65
2023-05-14T17:06:58.376Z,0.63
2023-05-14T17:09:26.069Z,0.93
2023-05-14T17:11:53.945Z,1.40
2023-05-14T17:14:21.698Z,1.73
2023-05-14T17:16:49.583Z,2.03
2023-05-14T17:19:17.526Z,1.80
2023-05-14T17:21:46.595Z,0.35
2023-05-14T17:24:14.257Z,0.95
2023-05-14T17:26:41.971Z,0.70
2023-05-14T17:29:09.662Z,0.60
2023-05-14T17:31:37.445Z,0.52
2023-05-14T17:34:05.536Z,1.60
2023-05-14T17:36:33.279Z,1.38
2023-05-14T17:39:02.268Z,1.65
2023-05-14T17:41:30.126Z,1.65
2023-05-14T17:43:57.762Z,0.73
2023-05-14T17:46:25.689Z,1.50
2023-05-14T17:48:53.407Z,1.40
2023-05-14T17:51:21.121Z,1.33
2023-05-14T17:53:48.751Z,1.08
2023-05-14T17:56:18.580Z,0.65
2023-05-14T17:58:46.416Z,0.70
2023-05-14T18:01:14.115Z,1.58
2023-05-14T18:03:42.308Z,1.85
2023-05-14T18:06:10.141Z,0.73
2023-05-14T18:08:37.858Z,2.17
2023-05-14T18:11:05.544Z,1.83
2023-05-14T18:13:34.628Z,0.55
2023-05-14T18:16:02.355Z,2.13
2023-05-14T18:18:30.122Z,1.65
2023-05-14T18:20:57.865Z,2.15
2023-05-14T18:23:25.515Z,0.98
2023-05-14T18:25:53.438Z,0.50
2023-05-14T18:28:21.462Z,0.75
2023-05-14T18:30:50.696Z,0.88
2023-05-14T18:33:18.431Z,0.88
2023-05-14T18:35:46.107Z,1.00
2023-05-14T18:38:14.004Z,0.95
2023-05-14T18:40:41.737Z,2.78
2023-05-14T18:43:10.858Z,2.33
2023-05-14T18:45:39.661Z,2.85
2023-05-14T18:48:09.156Z,2.28
2023-05-14T18:50:39.227Z,1.58
2023-05-14T18:53:07.461Z,1.45
2023-05-14T18:55:35.987Z,0.98
2023-05-14T18:58:03.856Z,1.83
2023-05-14T19:00:31.568Z,1.85
2023-05-14T19:02:59.354Z,0.90
2023-05-14T19:05:28.776Z,1.85
2023-05-14T19:07:57.609Z,1.13
2023-05-14T19:10:25.402Z,2.00
2023-05-14T19:12:53.120Z,0.95
2023-05-14T19:15:20.754Z,2.50
2023-05-14T19:17:49.101Z,0.90
2023-05-14T19:20:16.932Z,3.00
2023-05-14T19:22:46.060Z,1.13
2023-05-14T19:25:13.746Z,1.85
2023-05-14T19:27:41.470Z,2.08
2023-05-14T19:30:09.610Z,0.70
2023-05-14T19:32:37.953Z,0.93
2023-05-14T19:35:06.121Z,0.90
2023-05-14T19:37:34.012Z,0.93
2023-05-14T19:40:03.531Z,1.00
2023-05-14T19:42:31.756Z,0.98
2023-05-14T19:44:59.465Z,1.83
2023-05-14T19:47:28.465Z,2.05
2023-05-14T19:49:56.226Z,0.80
2023-05-14T19:52:23.967Z,1.20
2023-05-14T19:54:51.716Z,1.67
2023-05-14T19:57:20.769Z,0.98
2023-05-14T19:59:48.433Z,2.58
2023-05-14T20:02:18.186Z,0.98
2023-05-14T20:04:47.292Z,0.95
2023-05-14T20:07:15.552Z,2.20
2023-05-14T20:09:43.408Z,2.70
2023-05-14T20:12:12.880Z,1.02
2023-05-14T20:14:42.560Z,2.13
2023-05-14T20:17:14.170Z,1.00
2023-05-14T20:19:43.696Z,1.02
2023-05-14T20:22:11.412Z,2.35
2023-05-14T20:24:40.994Z,1.10
2023-05-14T20:27:08.874Z,2.72
2023-05-14T20:29:36.586Z,0.98
2023-05-14T20:32:06.275Z,2.47
2023-05-14T20:34:34.656Z,1.08
2023-05-14T20:37:04.811Z,3.70
2023-05-14T20:39:32.689Z,2.70
2023-05-14T20:42:00.648Z,1.73
2023-05-14T20:44:28.631Z,1.17
2023-05-14T20:46:56.410Z,1.67
2023-05-14T20:49:25.406Z,3.50
2023-05-14T20:51:53.203Z,2.88
2023-05-14T20:54:20.924Z,2.65
2023-05-14T20:56:48.731Z,1.67
2023-05-14T20:59:16.445Z,1.20
2023-05-14T21:01:44.158Z,3.58
2023-05-14T21:04:12.426Z,1.45
2023-05-14T21:06:41.841Z,2.42
2023-05-14T21:09:10.775Z,1.65
2023-05-14T21:11:38.871Z,2.85
2023-05-14T21:14:06.695Z,1.52
2023-05-14T21:16:34.633Z,1.15
2023-05-14T21:19:02.498Z,2.53
2023-05-14T21:21:30.269Z,2.75
2023-05-14T21:23:59.342Z,2.03
2023-05-14T21:26:27.091Z,1.42
2023-05-14T21:28:54.786Z,2.40
2023-05-14T21:31:22.501Z,1.52
2023-05-14T21:33:50.250Z,2.25
2023-05-14T21:36:18.124Z,2.75
2023-05-14T21:38:46.029Z,1.52
2023-05-14T21:41:15.502Z,0.98
2023-05-14T21:43:44.946Z,2.42
2023-05-14T21:46:12.759Z,3.25
2023-05-14T21:48:40.550Z,2.97
2023-05-14T21:51:08.439Z,2.95
2023-05-14T21:53:36.134Z,3.17
2023-05-14T21:56:03.948Z,1.70
2023-05-14T21:58:33.035Z,1.35
2023-05-14T22:01:00.758Z,1.75
2023-05-14T22:03:28.529Z,2.70
2023-05-14T22:05:56.518Z,1.73
2023-05-14T22:08:24.585Z,2.90
2023-05-14T22:10:52.534Z,2.30
2023-05-14T22:13:20.629Z,2.97
2023-05-14T22:15:55.518Z,1.63
2023-05-14T22:18:29.343Z,3.25
2023-05-14T22:20:57.307Z,2.60
2023-05-14T22:23:25.320Z,2.05
2023-05-14T22:25:53.267Z,1.80
2023-05-14T22:28:21.236Z,1.70
2023-05-14T22:30:50.446Z,3.20
2023-05-14T22:33:19.251Z,3.10
2023-05-14T22:35:47.281Z,1.88
2023-05-14T22:38:15.020Z,2.58
2023-05-14T22:40:42.688Z,1.67
2023-05-14T22:43:10.429Z,1.95
2023-05-14T22:45:38.097Z,2.45
2023-05-14T22:48:07.597Z,1.95
2023-05-14T22:50:35.327Z,2.88
2023-05-14T22:53:03.000Z,1.38
2023-05-14T22:55:30.721Z,3.20
2023-05-14T22:57:58.472Z,1.33
2023-05-14T23:00:26.173Z,2.00
2023-05-14T23:02:54.057Z,3.80
2023-05-14T23:05:23.301Z,2.03
2023-05-14T23:07:51.121Z,2.95
2023-05-14T23:10:18.992Z,3.60
2023-05-14T23:12:46.679Z,2.58
2023-05-14T23:15:14.362Z,1.80
2023-05-14T23:17:42.132Z,1.63
2023-05-14T23:20:12.581Z,3.10
2023-05-14T23:22:41.567Z,3.28
2023-05-14T23:25:09.762Z,2.45
2023-05-14T23:27:37.441Z,1.20
2023-05-14T23:30:05.449Z,2.15
2023-05-14T23:32:33.260Z,2.88
2023-05-14T23:35:01.111Z,2.20
2023-05-14T23:37:28.913Z,3.80
2023-05-14T23:39:57.992Z,3.10
2023-05-14T23:42:25.794Z,3.83
2023-05-14T23:44:53.514Z,3.42
2023-05-14T23:55:40.953Z,3.97
2023-05-14T23:58:08.674Z,3.28
